Terminal Aerodrome Forecast
Issued by NWS Shreveport, LA

Current Version | Previous Version | Text Only | Print | Product List | Glossary On
Versions: 1 2 3 4 5 6 7 8 9 10 11 12 13 14 15 16 17 18 19 20 21
000
FTUS44 KSHV 201124
TAFELD
TAF
KELD 201124Z 2012/2112 16010KT P6SM SCT020 BKN040
      TEMPO 2012/2015 BKN015
     FM201800 17014G22KT P6SM BKN050
     FM202200 17012G20KT P6SM VCTS OVC040CB
     FM211000 03008KT 3SM TSRA BR OVC020CB=

USA.gov is the U.S. government's official web portal to all federal, state and local government web resources and services.